sensor_id;sensor_type;location;lat;lon;timestamp;P1;durP1;ratioP1;P2;durP2;ratioP2
52268;SDS011;38224;50.950;4.100;2023-07-22T00:01:04;17.40;;;9.05;;
52268;SDS011;38224;50.950;4.100;2023-07-22T00:03:29;14.20;;;8.82;;
52268;SDS011;38224;50.950;4.100;2023-07-22T00:08:30;14.52;;;9.05;;
52268;SDS011;38224;50.950;4.100;2023-07-22T00:10:55;13.18;;;9.15;;
52268;SDS011;38224;50.950;4.100;2023-07-22T00:13:21;16.37;;;9.03;;
52268;SDS011;38224;50.950;4.100;2023-07-22T00:15:46;14.50;;;8.50;;
52268;SDS011;38224;50.950;4.100;2023-07-22T00:18:11;15.27;;;8.30;;
52268;SDS011;38224;50.950;4.100;2023-07-22T00:20:37;13.63;;;8.93;;
52268;SDS011;38224;50.950;4.100;2023-07-22T00:23:02;14.43;;;8.63;;
52268;SDS011;38224;50.950;4.100;2023-07-22T00:25:27;16.92;;;9.38;;
52268;SDS011;38224;50.950;4.100;2023-07-22T00:27:52;17.13;;;8.70;;
52268;SDS011;38224;50.950;4.100;2023-07-22T00:30:18;15.30;;;9.37;;
52268;SDS011;38224;50.950;4.100;2023-07-22T00:32:43;15.32;;;9.60;;
52268;SDS011;38224;50.950;4.100;2023-07-22T00:35:08;14.10;;;9.32;;
52268;SDS011;38224;50.950;4.100;2023-07-22T00:37:37;16.00;;;10.18;;
52268;SDS011;38224;50.950;4.100;2023-07-22T00:40:02;13.13;;;9.38;;
52268;SDS011;38224;50.950;4.100;2023-07-22T00:42:32;16.42;;;8.85;;
52268;SDS011;38224;50.950;4.100;2023-07-22T00:44:57;17.88;;;9.60;;
52268;SDS011;38224;50.950;4.100;2023-07-22T00:47:22;16.17;;;9.83;;
52268;SDS011;38224;50.950;4.100;2023-07-22T00:49:48;13.65;;;8.63;;
52268;SDS011;38224;50.950;4.100;2023-07-22T00:52:14;19.17;;;9.60;;
52268;SDS011;38224;50.950;4.100;2023-07-22T00:54:39;18.83;;;10.02;;
52268;SDS011;38224;50.950;4.100;2023-07-22T00:57:06;17.65;;;9.98;;
52268;SDS011;38224;50.950;4.100;2023-07-22T00:59:31;17.25;;;10.15;;
52268;SDS011;38224;50.950;4.100;2023-07-22T01:01:57;16.80;;;10.48;;
52268;SDS011;38224;50.950;4.100;2023-07-22T01:07:25;15.27;;;9.52;;
52268;SDS011;38224;50.950;4.100;2023-07-22T01:12:53;16.10;;;9.30;;
52268;SDS011;38224;50.950;4.100;2023-07-22T01:15:18;18.03;;;9.97;;
52268;SDS011;38224;50.950;4.100;2023-07-22T01:17:43;15.88;;;9.57;;
52268;SDS011;38224;50.950;4.100;2023-07-22T01:20:10;18.00;;;9.63;;
52268;SDS011;38224;50.950;4.100;2023-07-22T01:22:35;21.83;;;9.30;;
52268;SDS011;38224;50.950;4.100;2023-07-22T01:25:01;16.67;;;9.52;;
52268;SDS011;38224;50.950;4.100;2023-07-22T01:27:27;17.75;;;9.73;;
52268;SDS011;38224;50.950;4.100;2023-07-22T01:29:52;19.33;;;10.90;;
52268;SDS011;38224;50.950;4.100;2023-07-22T01:32:18;16.52;;;9.00;;
52268;SDS011;38224;50.950;4.100;2023-07-22T01:34:43;16.33;;;10.05;;
52268;SDS011;38224;50.950;4.100;2023-07-22T01:37:08;15.23;;;9.57;;
52268;SDS011;38224;50.950;4.100;2023-07-22T01:39:34;17.45;;;10.73;;
52268;SDS011;38224;50.950;4.100;2023-07-22T01:42:00;21.33;;;11.23;;
52268;SDS011;38224;50.950;4.100;2023-07-22T01:44:25;19.30;;;10.52;;
52268;SDS011;38224;50.950;4.100;2023-07-22T01:46:50;17.60;;;10.07;;
52268;SDS011;38224;50.950;4.100;2023-07-22T01:49:15;22.80;;;10.93;;
52268;SDS011;38224;50.950;4.100;2023-07-22T01:51:41;17.15;;;10.00;;
52268;SDS011;38224;50.950;4.100;2023-07-22T01:54:07;17.50;;;10.05;;
52268;SDS011;38224;50.950;4.100;2023-07-22T01:56:33;19.35;;;10.27;;
52268;SDS011;38224;50.950;4.100;2023-07-22T01:58:59;18.13;;;10.07;;
52268;SDS011;38224;50.950;4.100;2023-07-22T02:01:24;19.02;;;10.80;;
52268;SDS011;38224;50.950;4.100;2023-07-22T02:03:49;21.35;;;10.15;;
52268;SDS011;38224;50.950;4.100;2023-07-22T02:06:15;16.25;;;10.57;;
52268;SDS011;38224;50.950;4.100;2023-07-22T02:08:40;18.92;;;10.85;;
52268;SDS011;38224;50.950;4.100;2023-07-22T02:11:06;17.48;;;9.85;;
52268;SDS011;38224;50.950;4.100;2023-07-22T02:13:34;21.60;;;10.48;;
52268;SDS011;38224;50.950;4.100;2023-07-22T02:15:59;15.68;;;10.77;;
52268;SDS011;38224;50.950;4.100;2023-07-22T02:18:25;18.38;;;10.60;;
52268;SDS011;38224;50.950;4.100;2023-07-22T02:20:51;14.90;;;9.77;;
52268;SDS011;38224;50.950;4.100;2023-07-22T02:23:16;19.83;;;11.80;;
52268;SDS011;38224;50.950;4.100;2023-07-22T02:25:41;20.23;;;11.68;;
52268;SDS011;38224;50.950;4.100;2023-07-22T02:28:06;21.73;;;10.33;;
52268;SDS011;38224;50.950;4.100;2023-07-22T02:30:35;20.33;;;9.97;;
52268;SDS011;38224;50.950;4.100;2023-07-22T02:33:01;18.88;;;11.05;;
52268;SDS011;38224;50.950;4.100;2023-07-22T02:35:27;19.00;;;10.75;;
52268;SDS011;38224;50.950;4.100;2023-07-22T02:37:52;21.95;;;12.23;;
52268;SDS011;38224;50.950;4.100;2023-07-22T02:40:17;18.58;;;10.85;;
52268;SDS011;38224;50.950;4.100;2023-07-22T02:42:42;17.47;;;10.90;;
52268;SDS011;38224;50.950;4.100;2023-07-22T02:45:08;19.50;;;10.20;;
52268;SDS011;38224;50.950;4.100;2023-07-22T02:47:33;21.70;;;11.52;;
52268;SDS011;38224;50.950;4.100;2023-07-22T02:49:59;18.05;;;11.10;;
52268;SDS011;38224;50.950;4.100;2023-07-22T02:52:24;20.88;;;11.52;;
52268;SDS011;38224;50.950;4.100;2023-07-22T02:55:06;19.30;;;11.32;;
52268;SDS011;38224;50.950;4.100;2023-07-22T02:57:32;21.25;;;12.32;;
52268;SDS011;38224;50.950;4.100;2023-07-22T02:59:57;19.15;;;11.18;;
52268;SDS011;38224;50.950;4.100;2023-07-22T03:02:22;22.83;;;12.23;;
52268;SDS011;38224;50.950;4.100;2023-07-22T03:04:47;22.52;;;12.85;;
52268;SDS011;38224;50.950;4.100;2023-07-22T03:07:13;24.33;;;14.20;;
52268;SDS011;38224;50.950;4.100;2023-07-22T03:09:38;22.23;;;11.87;;
52268;SDS011;38224;50.950;4.100;2023-07-22T03:12:03;21.25;;;12.27;;
52268;SDS011;38224;50.950;4.100;2023-07-22T03:14:29;24.92;;;13.10;;
52268;SDS011;38224;50.950;4.100;2023-07-22T03:16:54;21.63;;;11.87;;
52268;SDS011;38224;50.950;4.100;2023-07-22T03:19:19;23.52;;;12.38;;
52268;SDS011;38224;50.950;4.100;2023-07-22T03:21:44;30.27;;;14.03;;
52268;SDS011;38224;50.950;4.100;2023-07-22T03:24:09;23.53;;;12.13;;
52268;SDS011;38224;50.950;4.100;2023-07-22T03:26:35;22.07;;;13.00;;
52268;SDS011;38224;50.950;4.100;2023-07-22T03:29:00;25.40;;;12.73;;
52268;SDS011;38224;50.950;4.100;2023-07-22T03:31:26;22.17;;;12.23;;
52268;SDS011;38224;50.950;4.100;2023-07-22T03:33:51;21.63;;;12.10;;
52268;SDS011;38224;50.950;4.100;2023-07-22T03:36:17;22.17;;;12.60;;
52268;SDS011;38224;50.950;4.100;2023-07-22T03:38:42;24.10;;;13.30;;
52268;SDS011;38224;50.950;4.100;2023-07-22T03:41:07;24.30;;;12.90;;
52268;SDS011;38224;50.950;4.100;2023-07-22T03:43:33;28.33;;;13.27;;
52268;SDS011;38224;50.950;4.100;2023-07-22T03:45:58;22.95;;;12.13;;
52268;SDS011;38224;50.950;4.100;2023-07-22T03:48:23;24.13;;;12.87;;
52268;SDS011;38224;50.950;4.100;2023-07-22T03:50:48;23.73;;;12.90;;
52268;SDS011;38224;50.950;4.100;2023-07-22T03:53:14;26.95;;;13.20;;
52268;SDS011;38224;50.950;4.100;2023-07-22T03:55:39;23.77;;;12.53;;
52268;SDS011;38224;50.950;4.100;2023-07-22T03:58:04;23.88;;;12.95;;
52268;SDS011;38224;50.950;4.100;2023-07-22T04:00:30;24.03;;;12.70;;
52268;SDS011;38224;50.950;4.100;2023-07-22T04:02:56;23.40;;;12.48;;
52268;SDS011;38224;50.950;4.100;2023-07-22T04:05:21;24.48;;;12.38;;
52268;SDS011;38224;50.950;4.100;2023-07-22T04:07:46;23.20;;;12.73;;
52268;SDS011;38224;50.950;4.100;2023-07-22T04:10:12;21.23;;;12.73;;
52268;SDS011;38224;50.950;4.100;2023-07-22T04:12:37;26.43;;;12.10;;
52268;SDS011;38224;50.950;4.100;2023-07-22T04:15:02;28.80;;;12.73;;
52268;SDS011;38224;50.950;4.100;2023-07-22T04:17:28;22.85;;;12.02;;
52268;SDS011;38224;50.950;4.100;2023-07-22T04:19:53;23.50;;;12.13;;
52268;SDS011;38224;50.950;4.100;2023-07-22T04:22:20;31.60;;;13.48;;
52268;SDS011;38224;50.950;4.100;2023-07-22T04:24:45;25.42;;;12.77;;
52268;SDS011;38224;50.950;4.100;2023-07-22T04:27:13;28.08;;;12.27;;
52268;SDS011;38224;50.950;4.100;2023-07-22T04:29:38;26.57;;;12.53;;
52268;SDS011;38224;50.950;4.100;2023-07-22T04:32:03;27.13;;;11.77;;
52268;SDS011;38224;50.950;4.100;2023-07-22T04:34:32;25.13;;;12.70;;
52268;SDS011;38224;50.950;4.100;2023-07-22T04:36:57;26.50;;;12.75;;
52268;SDS011;38224;50.950;4.100;2023-07-22T04:39:23;23.33;;;12.35;;
52268;SDS011;38224;50.950;4.100;2023-07-22T04:41:48;24.33;;;11.43;;
52268;SDS011;38224;50.950;4.100;2023-07-22T04:44:14;28.53;;;12.33;;
52268;SDS011;38224;50.950;4.100;2023-07-22T04:46:39;22.35;;;12.77;;
52268;SDS011;38224;50.950;4.100;2023-07-22T04:49:05;23.75;;;12.40;;
52268;SDS011;38224;50.950;4.100;2023-07-22T04:51:31;28.60;;;12.93;;
52268;SDS011;38224;50.950;4.100;2023-07-22T04:53:57;25.30;;;12.18;;
52268;SDS011;38224;50.950;4.100;2023-07-22T04:56:22;22.25;;;12.10;;
52268;SDS011;38224;50.950;4.100;2023-07-22T04:58:47;23.48;;;12.93;;
52268;SDS011;38224;50.950;4.100;2023-07-22T05:01:14;26.85;;;12.57;;
52268;SDS011;38224;50.950;4.100;2023-07-22T05:03:40;24.35;;;12.57;;
52268;SDS011;38224;50.950;4.100;2023-07-22T05:06:05;29.25;;;13.48;;
52268;SDS011;38224;50.950;4.100;2023-07-22T05:08:31;32.42;;;14.05;;
52268;SDS011;38224;50.950;4.100;2023-07-22T05:10:56;37.58;;;15.73;;
52268;SDS011;38224;50.950;4.100;2023-07-22T05:13:21;28.45;;;13.55;;
52268;SDS011;38224;50.950;4.100;2023-07-22T05:15:46;31.87;;;13.17;;
52268;SDS011;38224;50.950;4.100;2023-07-22T05:18:12;23.60;;;12.90;;
52268;SDS011;38224;50.950;4.100;2023-07-22T05:20:37;31.50;;;12.60;;
52268;SDS011;38224;50.950;4.100;2023-07-22T05:23:03;25.33;;;11.85;;
52268;SDS011;38224;50.950;4.100;2023-07-22T05:25:28;23.08;;;11.48;;
52268;SDS011;38224;50.950;4.100;2023-07-22T05:27:53;26.17;;;11.70;;
52268;SDS011;38224;50.950;4.100;2023-07-22T05:30:18;23.63;;;12.13;;
52268;SDS011;38224;50.950;4.100;2023-07-22T05:32:44;21.42;;;11.52;;
52268;SDS011;38224;50.950;4.100;2023-07-22T05:35:09;20.00;;;11.27;;
52268;SDS011;38224;50.950;4.100;2023-07-22T05:37:34;20.27;;;10.05;;
52268;SDS011;38224;50.950;4.100;2023-07-22T05:39:59;21.38;;;11.57;;
52268;SDS011;38224;50.950;4.100;2023-07-22T05:42:26;18.85;;;10.20;;
52268;SDS011;38224;50.950;4.100;2023-07-22T05:44:53;16.03;;;9.90;;
52268;SDS011;38224;50.950;4.100;2023-07-22T05:47:19;20.27;;;9.82;;
52268;SDS011;38224;50.950;4.100;2023-07-22T05:49:44;19.47;;;10.13;;
52268;SDS011;38224;50.950;4.100;2023-07-22T05:52:09;21.43;;;9.27;;
52268;SDS011;38224;50.950;4.100;2023-07-22T05:54:34;16.87;;;9.30;;
52268;SDS011;38224;50.950;4.100;2023-07-22T05:57:00;20.50;;;9.30;;
52268;SDS011;38224;50.950;4.100;2023-07-22T05:59:25;21.45;;;8.90;;
52268;SDS011;38224;50.950;4.100;2023-07-22T06:01:50;16.93;;;8.77;;
52268;SDS011;38224;50.950;4.100;2023-07-22T06:04:15;16.50;;;8.87;;
52268;SDS011;38224;50.950;4.100;2023-07-22T06:06:41;22.88;;;9.90;;
52268;SDS011;38224;50.950;4.100;2023-07-22T06:09:06;18.63;;;9.90;;
52268;SDS011;38224;50.950;4.100;2023-07-22T06:11:31;17.67;;;8.83;;
52268;SDS011;38224;50.950;4.100;2023-07-22T06:13:56;17.87;;;8.53;;
52268;SDS011;38224;50.950;4.100;2023-07-22T06:16:22;15.60;;;8.43;;
52268;SDS011;38224;50.950;4.100;2023-07-22T06:18:47;15.43;;;8.13;;
52268;SDS011;38224;50.950;4.100;2023-07-22T06:21:12;23.40;;;9.87;;
52268;SDS011;38224;50.950;4.100;2023-07-22T06:23:37;17.67;;;8.53;;
52268;SDS011;38224;50.950;4.100;2023-07-22T06:26:03;19.05;;;8.73;;
52268;SDS011;38224;50.950;4.100;2023-07-22T06:28:28;16.30;;;8.03;;
52268;SDS011;38224;50.950;4.100;2023-07-22T06:30:53;15.45;;;8.73;;
52268;SDS011;38224;50.950;4.100;2023-07-22T06:33:18;20.27;;;9.43;;
52268;SDS011;38224;50.950;4.100;2023-07-22T06:35:44;18.63;;;8.00;;
52268;SDS011;38224;50.950;4.100;2023-07-22T06:38:09;17.50;;;8.40;;
52268;SDS011;38224;50.950;4.100;2023-07-22T06:40:34;19.50;;;8.73;;
52268;SDS011;38224;50.950;4.100;2023-07-22T06:43:00;12.07;;;7.47;;
52268;SDS011;38224;50.950;4.100;2023-07-22T06:45:25;17.23;;;8.45;;
52268;SDS011;38224;50.950;4.100;2023-07-22T06:47:50;19.00;;;8.45;;
52268;SDS011;38224;50.950;4.100;2023-07-22T06:50:15;23.40;;;8.30;;
52268;SDS011;38224;50.950;4.100;2023-07-22T06:52:41;17.88;;;8.27;;
52268;SDS011;38224;50.950;4.100;2023-07-22T06:55:06;14.33;;;7.97;;
52268;SDS011;38224;50.950;4.100;2023-07-22T06:57:32;22.55;;;7.72;;
52268;SDS011;38224;50.950;4.100;2023-07-22T06:59:57;17.17;;;8.10;;
52268;SDS011;38224;50.950;4.100;2023-07-22T07:02:22;19.75;;;9.38;;
52268;SDS011;38224;50.950;4.100;2023-07-22T07:04:48;18.15;;;8.02;;
52268;SDS011;38224;50.950;4.100;2023-07-22T07:07:13;15.18;;;7.65;;
52268;SDS011;38224;50.950;4.100;2023-07-22T07:09:39;22.42;;;8.52;;
52268;SDS011;38224;50.950;4.100;2023-07-22T07:12:05;16.42;;;8.00;;
52268;SDS011;38224;50.950;4.100;2023-07-22T07:14:32;16.15;;;8.52;;
52268;SDS011;38224;50.950;4.100;2023-07-22T07:16:57;18.63;;;8.40;;
52268;SDS011;38224;50.950;4.100;2023-07-22T07:19:22;16.70;;;8.37;;
52268;SDS011;38224;50.950;4.100;2023-07-22T07:21:47;16.87;;;8.27;;
52268;SDS011;38224;50.950;4.100;2023-07-22T07:24:13;19.03;;;7.73;;
52268;SDS011;38224;50.950;4.100;2023-07-22T07:26:38;19.13;;;8.25;;
52268;SDS011;38224;50.950;4.100;2023-07-22T07:29:03;20.05;;;8.13;;
52268;SDS011;38224;50.950;4.100;2023-07-22T07:31:29;18.83;;;8.70;;
52268;SDS011;38224;50.950;4.100;2023-07-22T07:33:54;19.30;;;8.27;;
52268;SDS011;38224;50.950;4.100;2023-07-22T07:36:20;16.67;;;8.23;;
52268;SDS011;38224;50.950;4.100;2023-07-22T07:38:45;16.00;;;7.82;;
52268;SDS011;38224;50.950;4.100;2023-07-22T07:41:10;18.50;;;8.80;;
52268;SDS011;38224;50.950;4.100;2023-07-22T07:43:39;19.85;;;8.65;;
52268;SDS011;38224;50.950;4.100;2023-07-22T07:49:03;19.85;;;9.30;;
52268;SDS011;38224;50.950;4.100;2023-07-22T07:51:29;27.70;;;9.88;;
52268;SDS011;38224;50.950;4.100;2023-07-22T07:53:55;17.75;;;8.60;;
52268;SDS011;38224;50.950;4.100;2023-07-22T07:56:21;17.95;;;8.80;;
52268;SDS011;38224;50.950;4.100;2023-07-22T07:58:47;16.90;;;8.18;;
52268;SDS011;38224;50.950;4.100;2023-07-22T08:01:12;19.00;;;8.65;;
52268;SDS011;38224;50.950;4.100;2023-07-22T08:03:37;18.60;;;8.30;;
52268;SDS011;38224;50.950;4.100;2023-07-22T08:06:03;16.10;;;8.00;;
52268;SDS011;38224;50.950;4.100;2023-07-22T08:08:28;18.88;;;7.50;;
52268;SDS011;38224;50.950;4.100;2023-07-22T08:11:13;12.10;;;7.07;;
52268;SDS011;38224;50.950;4.100;2023-07-22T08:13:39;19.85;;;7.57;;
52268;SDS011;38224;50.950;4.100;2023-07-22T08:16:05;15.02;;;7.28;;
52268;SDS011;38224;50.950;4.100;2023-07-22T08:18:31;17.13;;;6.97;;
52268;SDS011;38224;50.950;4.100;2023-07-22T08:20:57;16.23;;;6.72;;
52268;SDS011;38224;50.950;4.100;2023-07-22T08:23:22;15.23;;;7.25;;
52268;SDS011;38224;50.950;4.100;2023-07-22T08:25:48;14.82;;;6.30;;
52268;SDS011;38224;50.950;4.100;2023-07-22T08:28:13;13.40;;;5.65;;
52268;SDS011;38224;50.950;4.100;2023-07-22T08:30:39;10.85;;;5.40;;
52268;SDS011;38224;50.950;4.100;2023-07-22T08:33:05;15.20;;;5.07;;
52268;SDS011;38224;50.950;4.100;2023-07-22T08:35:33;12.02;;;4.63;;
52268;SDS011;38224;50.950;4.100;2023-07-22T08:37:58;8.57;;;4.50;;
52268;SDS011;38224;50.950;4.100;2023-07-22T08:40:24;10.83;;;4.80;;
52268;SDS011;38224;50.950;4.100;2023-07-22T08:42:49;8.03;;;4.50;;
52268;SDS011;38224;50.950;4.100;2023-07-22T08:45:15;8.27;;;4.03;;
52268;SDS011;38224;50.950;4.100;2023-07-22T08:47:47;7.13;;;4.32;;
52268;SDS011;38224;50.950;4.100;2023-07-22T08:50:15;7.90;;;3.97;;
52268;SDS011;38224;50.950;4.100;2023-07-22T08:52:41;8.48;;;3.42;;
52268;SDS011;38224;50.950;4.100;2023-07-22T08:55:07;9.15;;;4.25;;
52268;SDS011;38224;50.950;4.100;2023-07-22T08:57:33;6.95;;;3.13;;
52268;SDS011;38224;50.950;4.100;2023-07-22T08:59:59;12.88;;;4.78;;
52268;SDS011;38224;50.950;4.100;2023-07-22T09:02:24;5.60;;;2.70;;
52268;SDS011;38224;50.950;4.100;2023-07-22T09:04:50;6.97;;;3.25;;
52268;SDS011;38224;50.950;4.100;2023-07-22T09:07:15;4.55;;;2.75;;
52268;SDS011;38224;50.950;4.100;2023-07-22T09:09:41;9.23;;;3.30;;
52268;SDS011;38224;50.950;4.100;2023-07-22T09:12:06;6.88;;;3.17;;
52268;SDS011;38224;50.950;4.100;2023-07-22T09:14:32;14.55;;;3.17;;
52268;SDS011;38224;50.950;4.100;2023-07-22T09:16:58;6.53;;;2.92;;
52268;SDS011;38224;50.950;4.100;2023-07-22T09:19:23;6.70;;;2.30;;
52268;SDS011;38224;50.950;4.100;2023-07-22T09:21:48;7.93;;;2.43;;
52268;SDS011;38224;50.950;4.100;2023-07-22T09:24:23;4.53;;;2.30;;
52268;SDS011;38224;50.950;4.100;2023-07-22T09:26:49;5.22;;;2.33;;
52268;SDS011;38224;50.950;4.100;2023-07-22T09:29:14;6.63;;;2.60;;
52268;SDS011;38224;50.950;4.100;2023-07-22T09:31:53;6.68;;;2.70;;
52268;SDS011;38224;50.950;4.100;2023-07-22T09:34:18;5.85;;;2.75;;
52268;SDS011;38224;50.950;4.100;2023-07-22T09:36:54;6.47;;;2.60;;
52268;SDS011;38224;50.950;4.100;2023-07-22T09:39:20;4.95;;;1.83;;
52268;SDS011;38224;50.950;4.100;2023-07-22T09:41:46;7.20;;;2.65;;
52268;SDS011;38224;50.950;4.100;2023-07-22T09:44:11;3.72;;;1.92;;
52268;SDS011;38224;50.950;4.100;2023-07-22T09:46:37;5.18;;;1.90;;
52268;SDS011;38224;50.950;4.100;2023-07-22T09:49:03;4.30;;;1.95;;
52268;SDS011;38224;50.950;4.100;2023-07-22T09:51:33;4.53;;;2.00;;
52268;SDS011;38224;50.950;4.100;2023-07-22T09:53:59;2.95;;;1.80;;
52268;SDS011;38224;50.950;4.100;2023-07-22T09:56:25;2.17;;;1.48;;
52268;SDS011;38224;50.950;4.100;2023-07-22T09:58:50;7.10;;;1.77;;
52268;SDS011;38224;50.950;4.100;2023-07-22T10:01:16;3.38;;;1.90;;
52268;SDS011;38224;50.950;4.100;2023-07-22T10:03:44;2.58;;;1.70;;
52268;SDS011;38224;50.950;4.100;2023-07-22T10:06:10;4.03;;;2.00;;
52268;SDS011;38224;50.950;4.100;2023-07-22T10:08:35;2.97;;;1.97;;
52268;SDS011;38224;50.950;4.100;2023-07-22T10:11:01;7.13;;;2.63;;
52268;SDS011;38224;50.950;4.100;2023-07-22T10:13:28;5.35;;;1.88;;
52268;SDS011;38224;50.950;4.100;2023-07-22T10:15:53;2.97;;;1.58;;
52268;SDS011;38224;50.950;4.100;2023-07-22T10:18:19;4.50;;;1.73;;
52268;SDS011;38224;50.950;4.100;2023-07-22T10:20:46;4.00;;;1.48;;
52268;SDS011;38224;50.950;4.100;2023-07-22T10:23:11;4.40;;;1.63;;
52268;SDS011;38224;50.950;4.100;2023-07-22T10:25:39;5.43;;;1.60;;
52268;SDS011;38224;50.950;4.100;2023-07-22T10:28:04;3.58;;;1.52;;
52268;SDS011;38224;50.950;4.100;2023-07-22T10:30:30;3.13;;;1.67;;
52268;SDS011;38224;50.950;4.100;2023-07-22T10:32:56;3.30;;;1.63;;
52268;SDS011;38224;50.950;4.100;2023-07-22T10:37:46;2.47;;;1.60;;
52268;SDS011;38224;50.950;4.100;2023-07-22T10:42:53;4.60;;;1.70;;
52268;SDS011;38224;50.950;4.100;2023-07-22T10:45:26;5.65;;;1.85;;
52268;SDS011;38224;50.950;4.100;2023-07-22T10:48:02;2.78;;;1.58;;
52268;SDS011;38224;50.950;4.100;2023-07-22T10:50:40;2.75;;;1.77;;
52268;SDS011;38224;50.950;4.100;2023-07-22T10:53:06;2.13;;;1.23;;
52268;SDS011;38224;50.950;4.100;2023-07-22T10:55:31;3.20;;;1.92;;
52268;SDS011;38224;50.950;4.100;2023-07-22T10:58:01;2.33;;;1.50;;
52268;SDS011;38224;50.950;4.100;2023-07-22T11:00:31;3.38;;;1.80;;
52268;SDS011;38224;50.950;4.100;2023-07-22T11:03:12;3.58;;;1.73;;
52268;SDS011;38224;50.950;4.100;2023-07-22T11:08:13;3.47;;;1.55;;
52268;SDS011;38224;50.950;4.100;2023-07-22T11:10:38;3.28;;;1.48;;
52268;SDS011;38224;50.950;4.100;2023-07-22T11:13:16;7.82;;;1.70;;
52268;SDS011;38224;50.950;4.100;2023-07-22T11:15:46;3.27;;;2.27;;
52268;SDS011;38224;50.950;4.100;2023-07-22T11:18:12;3.97;;;1.98;;
52268;SDS011;38224;50.950;4.100;2023-07-22T11:20:37;2.77;;;1.60;;
52268;SDS011;38224;50.950;4.100;2023-07-22T11:23:02;2.85;;;1.58;;
52268;SDS011;38224;50.950;4.100;2023-07-22T11:25:27;4.57;;;1.40;;
52268;SDS011;38224;50.950;4.100;2023-07-22T11:27:53;4.03;;;1.70;;
52268;SDS011;38224;50.950;4.100;2023-07-22T11:30:18;3.42;;;1.40;;
52268;SDS011;38224;50.950;4.100;2023-07-22T11:32:43;3.80;;;1.50;;
52268;SDS011;38224;50.950;4.100;2023-07-22T11:35:09;1.95;;;1.50;;
52268;SDS011;38224;50.950;4.100;2023-07-22T11:37:35;2.10;;;1.50;;
52268;SDS011;38224;50.950;4.100;2023-07-22T11:40:00;2.58;;;1.23;;
52268;SDS011;38224;50.950;4.100;2023-07-22T11:42:26;2.63;;;1.40;;
52268;SDS011;38224;50.950;4.100;2023-07-22T11:44:51;3.65;;;1.52;;
52268;SDS011;38224;50.950;4.100;2023-07-22T11:47:16;4.10;;;1.40;;
52268;SDS011;38224;50.950;4.100;2023-07-22T11:49:46;6.00;;;1.73;;
52268;SDS011;38224;50.950;4.100;2023-07-22T11:52:15;3.63;;;1.42;;
52268;SDS011;38224;50.950;4.100;2023-07-22T11:54:41;3.58;;;1.67;;
52268;SDS011;38224;50.950;4.100;2023-07-22T11:59:36;3.00;;;1.83;;
52268;SDS011;38224;50.950;4.100;2023-07-22T12:02:01;5.63;;;1.50;;
52268;SDS011;38224;50.950;4.100;2023-07-22T12:04:30;2.83;;;1.65;;
52268;SDS011;38224;50.950;4.100;2023-07-22T12:06:55;3.13;;;1.60;;
52268;SDS011;38224;50.950;4.100;2023-07-22T12:09:21;3.35;;;1.70;;
52268;SDS011;38224;50.950;4.100;2023-07-22T12:11:47;3.63;;;1.45;;
52268;SDS011;38224;50.950;4.100;2023-07-22T12:14:19;5.13;;;1.70;;
52268;SDS011;38224;50.950;4.100;2023-07-22T12:16:44;3.20;;;1.80;;
52268;SDS011;38224;50.950;4.100;2023-07-22T12:19:10;3.00;;;1.40;;
52268;SDS011;38224;50.950;4.100;2023-07-22T12:21:35;4.03;;;1.77;;
52268;SDS011;38224;50.950;4.100;2023-07-22T12:24:00;3.58;;;1.42;;
52268;SDS011;38224;50.950;4.100;2023-07-22T12:26:26;4.25;;;2.00;;
52268;SDS011;38224;50.950;4.100;2023-07-22T12:28:52;4.97;;;1.75;;
52268;SDS011;38224;50.950;4.100;2023-07-22T12:31:17;4.05;;;1.85;;
52268;SDS011;38224;50.950;4.100;2023-07-22T12:33:42;3.07;;;1.60;;
52268;SDS011;38224;50.950;4.100;2023-07-22T12:36:08;4.55;;;2.40;;
52268;SDS011;38224;50.950;4.100;2023-07-22T12:38:33;4.13;;;1.83;;
52268;SDS011;38224;50.950;4.100;2023-07-22T12:40:59;4.47;;;1.80;;
52268;SDS011;38224;50.950;4.100;2023-07-22T12:43:25;7.40;;;2.00;;
52268;SDS011;38224;50.950;4.100;2023-07-22T12:45:50;2.80;;;1.90;;
52268;SDS011;38224;50.950;4.100;2023-07-22T12:48:16;4.60;;;1.70;;
52268;SDS011;38224;50.950;4.100;2023-07-22T12:50:42;2.35;;;1.30;;
52268;SDS011;38224;50.950;4.100;2023-07-22T12:53:07;7.65;;;2.45;;
52268;SDS011;38224;50.950;4.100;2023-07-22T12:55:33;3.05;;;1.92;;
52268;SDS011;38224;50.950;4.100;2023-07-22T12:57:58;5.13;;;1.90;;
52268;SDS011;38224;50.950;4.100;2023-07-22T13:00:24;4.63;;;1.50;;
52268;SDS011;38224;50.950;4.100;2023-07-22T13:02:49;5.17;;;1.50;;
52268;SDS011;38224;50.950;4.100;2023-07-22T13:05:14;4.78;;;1.50;;
52268;SDS011;38224;50.950;4.100;2023-07-22T13:07:39;5.93;;;2.40;;
52268;SDS011;38224;50.950;4.100;2023-07-22T13:10:05;3.60;;;1.70;;
52268;SDS011;38224;50.950;4.100;2023-07-22T13:12:34;4.85;;;1.58;;
52268;SDS011;38224;50.950;4.100;2023-07-22T13:14:59;3.13;;;1.40;;
52268;SDS011;38224;50.950;4.100;2023-07-22T13:17:24;3.57;;;1.60;;
52268;SDS011;38224;50.950;4.100;2023-07-22T13:19:49;3.97;;;1.70;;
52268;SDS011;38224;50.950;4.100;2023-07-22T13:22:15;7.00;;;1.93;;
52268;SDS011;38224;50.950;4.100;2023-07-22T13:24:40;7.47;;;1.80;;
52268;SDS011;38224;50.950;4.100;2023-07-22T13:27:06;4.17;;;1.70;;
52268;SDS011;38224;50.950;4.100;2023-07-22T13:29:31;5.00;;;1.63;;
52268;SDS011;38224;50.950;4.100;2023-07-22T13:31:56;3.53;;;1.70;;
52268;SDS011;38224;50.950;4.100;2023-07-22T13:34:21;4.57;;;1.75;;
52268;SDS011;38224;50.950;4.100;2023-07-22T13:36:47;4.67;;;1.47;;
52268;SDS011;38224;50.950;4.100;2023-07-22T13:39:12;2.90;;;1.70;;
52268;SDS011;38224;50.950;4.100;2023-07-22T13:41:37;7.93;;;1.87;;
52268;SDS011;38224;50.950;4.100;2023-07-22T13:44:03;4.88;;;2.42;;
52268;SDS011;38224;50.950;4.100;2023-07-22T13:46:28;3.72;;;1.90;;
52268;SDS011;38224;50.950;4.100;2023-07-22T13:48:53;7.57;;;2.10;;
52268;SDS011;38224;50.950;4.100;2023-07-22T13:51:18;6.88;;;2.00;;
52268;SDS011;38224;50.950;4.100;2023-07-22T13:53:44;7.10;;;2.07;;
52268;SDS011;38224;50.950;4.100;2023-07-22T13:56:09;7.03;;;2.00;;
52268;SDS011;38224;50.950;4.100;2023-07-22T13:58:34;5.77;;;2.07;;
52268;SDS011;38224;50.950;4.100;2023-07-22T14:00:59;5.97;;;1.63;;
52268;SDS011;38224;50.950;4.100;2023-07-22T14:03:25;4.90;;;1.75;;
52268;SDS011;38224;50.950;4.100;2023-07-22T14:05:50;3.97;;;1.55;;
52268;SDS011;38224;50.950;4.100;2023-07-22T14:08:15;5.80;;;2.27;;
52268;SDS011;38224;50.950;4.100;2023-07-22T14:10:41;5.73;;;2.10;;
52268;SDS011;38224;50.950;4.100;2023-07-22T14:13:06;5.95;;;1.70;;
52268;SDS011;38224;50.950;4.100;2023-07-22T14:15:31;6.33;;;2.20;;
52268;SDS011;38224;50.950;4.100;2023-07-22T14:17:57;5.05;;;2.03;;
52268;SDS011;38224;50.950;4.100;2023-07-22T14:20:22;3.38;;;1.60;;
52268;SDS011;38224;50.950;4.100;2023-07-22T14:22:47;5.07;;;1.50;;
52268;SDS011;38224;50.950;4.100;2023-07-22T14:25:15;3.75;;;1.50;;
52268;SDS011;38224;50.950;4.100;2023-07-22T14:27:40;4.93;;;1.77;;
52268;SDS011;38224;50.950;4.100;2023-07-22T14:30:06;4.45;;;1.70;;
52268;SDS011;38224;50.950;4.100;2023-07-22T14:32:31;3.90;;;1.45;;
52268;SDS011;38224;50.950;4.100;2023-07-22T14:34:56;6.37;;;1.80;;
52268;SDS011;38224;50.950;4.100;2023-07-22T14:37:22;10.67;;;2.30;;
52268;SDS011;38224;50.950;4.100;2023-07-22T14:39:48;3.92;;;1.60;;
52268;SDS011;38224;50.950;4.100;2023-07-22T14:42:13;5.00;;;2.10;;
52268;SDS011;38224;50.950;4.100;2023-07-22T14:44:38;4.00;;;1.87;;
52268;SDS011;38224;50.950;4.100;2023-07-22T14:47:04;5.77;;;2.20;;
52268;SDS011;38224;50.950;4.100;2023-07-22T14:49:29;3.53;;;1.80;;